Terminal Aerodrome Forecast
Issued by NWS

Home | Current Version | Previous Version | Text Only | Print | Product List | Glossary On
Versions: 1 2 3 4 5 6 7 8 9 10 11 12 13 14 15 16 17 18 19 20 21 22 23 24 25 26 27 28 29 30
000
FTAK31 PAFA 051732
TAFAFA
TAF
PAFA 051732Z 0518/0624 VRB03KT 2SM FU SCT025 SCT035 OVC100
     FM052200 13005KT 6SM FU SCT050 BKN100
     FM060500 04004KT P6SM SCT050 SCT200=

USA.gov is the U.S. government's official web portal to all federal, state and local government web resources and services.